This is the latest recevied weather packets stored in our database for station/object N6RDS-8. If no packets are shown the sender has not sent any weather packets the latest 10 day(s).
| Time | Temp. | Humidity | Pressure | Rain* | Wind** | Luminosity | Snow |
|---|---|---|---|---|---|---|---|
| 1777831601 | 25° C | 41% | 1020 hPa | 0 mm | - | 305 W/m² | - |
| 1777831299 | 25° C | 40% | 1020.3 hPa | 0 mm | - | 373 W/m² | - |
| 1777830995 | 25° C | 40% | 1020.3 hPa | 0 mm | - | 361 W/m² | - |
| 1777830692 | 25° C | 41% | 1020.5 hPa | 0 mm | - | 356 W/m² | - |
| 1777830389 | 24.44° C | 42% | 1020.4 hPa | 0 mm | - | 352 W/m² | - |
| 1777830086 | 24.44° C | 42% | 1020.4 hPa | 0 mm | - | 329 W/m² | - |
| 1777829781 | 25° C | 41% | 1020.7 hPa | 0 mm | - | 366 W/m² | - |
| 1777829478 | 24.44° C | 43% | 1020.6 hPa | 0 mm | - | 372 W/m² | - |
| 1777829175 | 23.89° C | 43% | 1020.7 hPa | 0 mm | - | 374 W/m² | - |
| 1777828872 | 23.89° C | 44% | 1020.8 hPa | 0 mm | - | 326 W/m² | - |
| 1777828569 | 23.89° C | 43% | 1020.7 hPa | 0 mm | - | 354 W/m² | - |
| 1777828266 | 23.33° C | 43% | 1020.6 hPa | 0 mm | - | 303 W/m² | - |
| 1777827963 | 23.33° C | 44% | 1020.7 hPa | 0 mm | - | 325 W/m² | - |
| 1777827659 | 23.33° C | 44% | 1020.7 hPa | 0 mm | - | 344 W/m² | - |
| 1777827357 | 23.33° C | 44% | 1020.9 hPa | 0 mm | - | 306 W/m² | - |
| 1777827053 | 22.78° C | 44% | 1020.9 hPa | 0 mm | - | 400 W/m² | - |
| 1777826750 | 22.78° C | 45% | 1020.8 hPa | 0 mm | - | 268 W/m² | - |
| 1777826447 | 22.22° C | 46% | 1020.8 hPa | 0 mm | - | 305 W/m² | - |
| 1777826144 | 22.22° C | 48% | 1020.7 hPa | 0 mm | - | 243 W/m² | - |
| 1777825841 | 21.67° C | 48% | 1020.5 hPa | 0 mm | - | 273 W/m² | - |
| 1777825538 | 21.67° C | 48% | 1020.7 hPa | 0 mm | - | 226 W/m² | - |
| 1777825236 | 21.67° C | 47% | 1020.7 hPa | 0 mm | - | 250 W/m² | - |
| 1777824932 | 21.67° C | 47% | 1020.9 hPa | 0 mm | - | 349 W/m² | - |
| 1777824628 | 21.11° C | 48% | 1020.7 hPa | 0 mm | - | 256 W/m² | - |
| 1777824326 | 21.11° C | 48% | 1020.7 hPa | 0 mm | - | 245 W/m² | - |
* Rain latest hour (hover to see other rain measurements)
** Current wind speed in m/s (hover to see current wind gust speed)